Time;durP1;ratioP1;P1;durP2;ratioP2;P2;SDS_P1;SDS_P2;PMS_P1;PMS_P2;Temp;Humidity;BMP_temperature;BMP_pressure;BME280_temperature;BME280_humidity;BME280_pressure;Samples;Min_cycle;Max_cycle;Signal;HPM_P1;HPM_P2
2023/10/07 04:02:58;;;;;;;3.60;2.47;;;13.00;72.90;;;;;;4975134;28;20879;-71
2023/10/07 04:05:32;;;;;;;3.73;2.10;;;13.00;72.80;;;;;;4976344;28;20430;-72
2023/10/07 04:08:00;;;;;;;2.97;2.10;;;13.00;72.60;;;;;;4976269;28;20485;-71
2023/10/07 04:10:36;;;;;;;4.10;2.20;;;12.90;72.80;;;;;;4976390;28;20462;-71
2023/10/07 04:13:07;;;;;;;4.40;2.87;;;12.90;72.70;;;;;;4975990;28;20445;-71
2023/10/07 04:15:44;;;;;;;2.90;2.60;;;12.60;73.40;;;;;;4976946;28;20529;-72
2023/10/07 04:18:17;;;;;;;3.13;2.33;;;12.60;73.60;;;;;;4976160;28;20430;-71
2023/10/07 04:20:57;;;;;;;3.47;2.50;;;12.70;73.30;;;;;;4976120;28;20485;-72
2023/10/07 04:23:25;;;;;;;3.43;2.67;;;12.70;73.30;;;;;;4976127;28;20458;-72
2023/10/07 04:25:55;;;;;;;3.37;2.40;;;12.70;73.30;;;;;;4976089;28;20470;-72
2023/10/07 04:28:25;;;;;;;2.70;2.00;;;12.60;73.50;;;;;;4975950;28;20474;-72
2023/10/07 04:30:53;;;;;;;4.07;2.47;;;12.70;73.20;;;;;;4975791;28;20987;-72
2023/10/07 04:33:32;;;;;;;4.00;2.70;;;12.60;73.20;;;;;;4975881;28;20446;-72
2023/10/07 04:36:04;;;;;;;4.40;3.00;;;12.60;73.30;;;;;;4975926;28;20832;-72
2023/10/07 04:38:52;;;;;;;4.70;2.83;;;12.60;73.50;;;;;;4975914;28;20430;-71
2023/10/07 04:41:33;;;;;;;4.33;3.27;;;12.50;73.80;;;;;;4975753;28;20896;-71
2023/10/07 04:44:20;;;;;;;3.40;2.77;;;12.50;73.90;;;;;;4976526;28;20799;-73
2023/10/07 04:46:55;;;;;;;3.30;2.13;;;12.40;74.20;;;;;;4975546;28;20998;-72
2023/10/07 04:49:35;;;;;;;3.00;2.40;;;12.30;74.60;;;;;;4975276;28;20438;-72
2023/10/07 04:52:04;;;;;;;3.03;2.40;;;12.10;74.50;;;;;;4975454;28;20496;-71
2023/10/07 04:54:35;;;;;;;4.07;2.80;;;11.90;75.00;;;;;;4975586;28;20449;-72
2023/10/07 04:57:02;;;;;;;3.80;2.57;;;12.00;74.70;;;;;;4975609;28;20435;-71
2023/10/07 04:59:29;;;;;;;4.40;2.83;;;12.00;74.60;;;;;;4975448;28;20453;-71
2023/10/07 05:02:01;;;;;;;3.20;2.40;;;12.00;74.60;;;;;;4975078;28;20497;-71
2023/10/07 05:04:32;;;;;;;4.97;2.43;;;12.00;74.70;;;;;;4975508;28;20435;-72
2023/10/07 05:07:00;;;;;;;3.70;2.60;;;12.00;74.60;;;;;;4975089;28;20795;-71
2023/10/07 05:09:27;;;;;;;4.37;2.40;;;12.10;74.60;;;;;;4975307;28;20450;-72
2023/10/07 05:11:53;;;;;;;3.60;2.60;;;12.00;74.70;;;;;;4975107;28;20497;-71
2023/10/07 05:14:22;;;;;;;3.73;2.67;;;12.00;74.50;;;;;;4975103;28;20456;-72
2023/10/07 05:16:49;;;;;;;4.10;2.80;;;12.10;74.70;;;;;;4975054;28;20457;-71
2023/10/07 05:19:19;;;;;;;4.07;2.50;;;11.90;74.80;;;;;;4975105;28;20818;-71
2023/10/07 05:21:58;;;;;;;3.70;2.33;;;12.00;74.70;;;;;;4974805;28;20558;-69
2023/10/07 05:24:29;;;;;;;3.57;2.17;;;12.10;74.50;;;;;;4975030;28;20441;-71
2023/10/07 05:26:55;;;;;;;3.27;2.17;;;12.10;74.30;;;;;;4974932;28;20488;-74
2023/10/07 05:29:24;;;;;;;3.03;2.03;;;12.10;74.50;;;;;;4974878;28;20449;-70
2023/10/07 05:31:51;;;;;;;3.20;2.20;;;12.10;74.50;;;;;;4974628;28;20493;-71
2023/10/07 05:34:18;;;;;;;2.90;2.07;;;12.10;74.40;;;;;;4974431;28;20905;-71
2023/10/07 05:36:46;;;;;;;3.30;2.23;;;12.10;73.90;;;;;;4974609;28;20446;-71
2023/10/07 05:39:15;;;;;;;4.67;2.90;;;12.00;74.20;;;;;;4974723;28;20446;-70
2023/10/07 05:41:41;;;;;;;4.00;2.10;;;12.00;73.70;;;;;;4974538;28;20463;-70
2023/10/07 05:44:09;;;;;;;4.00;2.40;;;12.00;73.60;;;;;;4974634;28;20458;-71
2023/10/07 05:46:36;;;;;;;3.87;2.33;;;12.10;73.60;;;;;;4974681;28;20486;-71
2023/10/07 05:49:04;;;;;;;2.90;2.23;;;12.20;73.30;;;;;;4974793;28;20450;-70
2023/10/07 05:51:31;;;;;;;2.97;2.23;;;12.20;73.20;;;;;;4974098;28;20862;-70
2023/10/07 05:53:59;;;;;;;4.03;2.60;;;12.10;73.30;;;;;;4974249;28;20450;-70
2023/10/07 05:56:27;;;;;;;3.43;2.30;;;11.80;73.90;;;;;;4974476;28;20451;-70
2023/10/07 05:58:55;;;;;;;2.83;2.00;;;11.60;74.90;;;;;;4974487;28;20465;-70
2023/10/07 06:01:22;;;;;;;3.60;2.47;;;11.80;74.40;;;;;;4975489;28;20564;-70
2023/10/07 06:03:51;;;;;;;4.20;3.13;;;11.80;74.70;;;;;;4978467;28;20449;-71
2023/10/07 06:06:20;;;;;;;3.43;2.00;;;11.80;74.60;;;;;;4978465;28;20456;-71
2023/10/07 06:08:47;;;;;;;3.43;2.60;;;11.90;74.40;;;;;;4978128;28;20880;-70
2023/10/07 06:11:15;;;;;;;3.40;2.43;;;11.80;74.40;;;;;;4978282;28;20472;-71
2023/10/07 06:13:44;;;;;;;4.27;3.40;;;12.00;74.50;;;;;;4978408;28;20939;-71
2023/10/07 06:16:13;;;;;;;3.20;2.30;;;12.50;74.50;;;;;;4979152;28;20454;-71
2023/10/07 06:18:41;;;;;;;3.70;2.47;;;13.60;71.70;;;;;;4978213;28;20465;-70
2023/10/07 06:21:19;;;;;;;4.70;2.17;;;14.70;68.80;;;;;;4978277;28;20919;-72
2023/10/07 06:23:48;;;;;;;3.47;2.43;;;16.00;64.90;;;;;;4978633;28;20442;-71
2023/10/07 06:26:16;;;;;;;4.27;2.67;;;17.10;62.00;;;;;;4978181;28;20453;-72
2023/10/07 06:28:46;;;;;;;3.40;2.53;;;18.40;59.40;;;;;;4977781;28;20480;-72
2023/10/07 06:31:13;;;;;;;2.97;2.17;;;19.70;55.90;;;;;;4978071;28;20480;-72
2023/10/07 06:33:43;;;;;;;2.93;2.23;;;20.90;53.90;;;;;;4978065;28;20452;-72
2023/10/07 06:36:12;;;;;;;2.83;1.90;;;22.20;51.30;;;;;;4978052;28;20464;-71
2023/10/07 06:38:45;;;;;;;3.13;2.30;;;23.10;49.20;;;;;;4977959;28;20445;-70
2023/10/07 06:41:13;;;;;;;3.10;2.20;;;24.20;47.10;;;;;;4977811;28;20473;-71
2023/10/07 06:43:41;;;;;;;3.53;2.47;;;25.10;45.30;;;;;;4977620;28;20438;-70
2023/10/07 06:46:11;;;;;;;3.30;2.57;;;26.10;44.00;;;;;;4977577;28;20446;-71
2023/10/07 06:48:39;;;;;;;2.90;2.20;;;26.50;42.60;;;;;;4977694;28;20457;-70
2023/10/07 06:51:10;;;;;;;4.10;2.23;;;27.20;42.40;;;;;;4977531;28;20466;-71
2023/10/07 06:53:38;;;;;;;2.67;1.90;;;28.00;40.10;;;;;;4977611;28;20837;-72
2023/10/07 06:56:05;;;;;;;2.80;2.20;;;28.60;38.50;;;;;;4977604;28;20442;-71
2023/10/07 06:58:35;;;;;;;3.10;2.30;;;28.60;39.10;;;;;;4977506;28;20445;-71
2023/10/07 07:01:10;;;;;;;3.20;2.00;;;29.10;38.70;;;;;;4977669;28;20486;-72
2023/10/07 07:03:38;;;;;;;2.77;2.27;;;29.80;37.50;;;;;;4977551;28;20433;-72
2023/10/07 07:06:16;;;;;;;2.57;2.10;;;30.30;36.90;;;;;;4977345;28;20448;-71
2023/10/07 07:08:43;;;;;;;4.43;2.00;;;31.10;35.90;;;;;;4977302;28;20429;-71
2023/10/07 07:11:11;;;;;;;3.17;2.00;;;31.90;35.30;;;;;;4977165;28;20466;-72
2023/10/07 07:13:43;;;;;;;2.30;1.80;;;32.60;33.60;;;;;;4976693;28;20478;-71
2023/10/07 07:16:13;;;;;;;3.37;2.30;;;33.10;33.90;;;;;;4977225;28;20882;-71
2023/10/07 07:18:43;;;;;;;3.37;2.23;;;33.20;33.30;;;;;;4977344;28;20859;-70
2023/10/07 07:21:31;;;;;;;3.00;2.40;;;32.20;34.10;;;;;;4977034;28;20509;-71
2023/10/07 07:23:58;;;;;;;3.13;2.40;;;30.10;36.50;;;;;;4977077;28;20429;-68
2023/10/07 07:26:25;;;;;;;2.93;2.13;;;28.50;38.90;;;;;;4976979;28;20450;-70
2023/10/07 07:28:56;;;;;;;3.30;2.30;;;27.50;40.80;;;;;;4976934;28;20446;-71
2023/10/07 07:31:26;;;;;;;2.80;2.07;;;26.40;41.90;;;;;;4976474;28;20508;-72
2023/10/07 07:34:06;;;;;;;2.67;1.97;;;25.40;44.20;;;;;;4976889;28;20445;-71
2023/10/07 07:36:39;;;;;;;4.27;2.57;;;25.30;45.80;;;;;;4976971;28;20465;-72
2023/10/07 07:39:09;;;;;;;3.27;2.50;;;26.60;44.10;;;;;;4977024;28;20514;-71
2023/10/07 07:41:38;;;;;;;4.30;2.30;;;27.80;41.30;;;;;;4976698;28;20469;-71
2023/10/07 07:44:11;;;;;;;4.20;2.67;;;27.60;43.10;;;;;;4976691;28;20466;-71
2023/10/07 07:46:51;;;;;;;3.40;2.23;;;27.30;43.10;;;;;;4976667;28;20433;-70
2023/10/07 07:49:20;;;;;;;2.70;2.03;;;26.50;43.90;;;;;;4976676;28;20431;-72
2023/10/07 07:51:48;;;;;;;3.17;2.30;;;25.90;44.40;;;;;;4976445;28;20528;-72
2023/10/07 07:54:16;;;;;;;2.97;2.40;;;25.00;45.50;;;;;;4976600;28;20450;-72
2023/10/07 07:56:45;;;;;;;2.67;2.00;;;23.60;47.30;;;;;;4976420;28;20507;-70
2023/10/07 07:59:14;;;;;;;3.10;1.90;;;22.10;49.60;;;;;;4976132;28;21091;-71
2023/10/07 08:01:44;;;;;;;3.87;2.50;;;21.40;52.70;;;;;;4976060;28;20851;-71
2023/10/07 08:04:17;;;;;;;3.67;2.00;;;21.30;53.60;;;;;;4976370;28;20505;-72
2023/10/07 08:06:46;;;;;;;3.03;2.13;;;21.10;54.20;;;;;;4976401;28;20435;-71
2023/10/07 08:09:16;;;;;;;2.77;2.20;;;21.20;52.50;;;;;;4976389;28;20456;-71
2023/10/07 08:11:43;;;;;;;3.53;2.53;;;21.00;52.10;;;;;;4976006;28;20501;-69
2023/10/07 08:14:10;;;;;;;3.30;1.80;;;20.80;53.70;;;;;;4976115;28;20446;-70
2023/10/07 08:16:50;;;;;;;3.23;2.10;;;20.80;54.00;;;;;;4976007;28;20510;-71
2023/10/07 08:19:20;;;;;;;3.53;2.30;;;20.40;53.40;;;;;;4976333;28;20853;-71
2023/10/07 08:21:51;;;;;;;3.40;2.37;;;20.50;55.80;;;;;;4975927;28;20501;-71
2023/10/07 08:24:19;;;;;;;2.80;1.70;;;20.50;53.30;;;;;;4975221;28;20516;-71
2023/10/07 08:26:48;;;;;;;3.13;2.50;;;20.20;54.20;;;;;;4975609;28;20493;-71
2023/10/07 08:29:31;;;;;;;3.40;1.97;;;20.30;55.90;;;;;;4975905;28;20549;-72
2023/10/07 08:31:58;;;;;;;2.50;1.80;;;20.30;54.30;;;;;;4975352;28;21009;-71
2023/10/07 08:34:32;;;;;;;3.13;1.97;;;20.10;55.50;;;;;;4975742;28;20465;-71
2023/10/07 08:37:02;;;;;;;3.20;2.10;;;20.10;55.90;;;;;;4975611;28;20924;-72
2023/10/07 08:39:44;;;;;;;2.70;1.80;;;19.90;57.20;;;;;;4975406;28;20924;-71
2023/10/07 08:42:17;;;;;;;2.90;1.77;;;20.00;57.90;;;;;;4975481;28;20469;-71
2023/10/07 08:44:51;;;;;;;3.00;2.07;;;20.00;54.00;;;;;;4975314;28;20453;-71
2023/10/07 08:47:20;;;;;;;3.30;2.00;;;19.90;55.60;;;;;;4975263;28;21026;-71
2023/10/07 08:49:48;;;;;;;3.00;1.63;;;19.90;55.90;;;;;;4975470;28;20505;-71
2023/10/07 08:52:19;;;;;;;3.73;2.13;;;20.10;54.10;;;;;;4975228;28;20522;-70
2023/10/07 08:54:47;;;;;;;2.90;1.80;;;20.10;54.10;;;;;;4975419;28;20436;-71
2023/10/07 08:57:19;;;;;;;2.97;1.60;;;20.20;53.20;;;;;;4974988;28;21030;-70
2023/10/07 08:59:49;;;;;;;2.50;1.93;;;20.10;55.80;;;;;;4974962;28;20529;-70
2023/10/07 09:02:26;;;;;;;3.17;2.10;;;20.00;55.50;;;;;;4974814;28;20496;-70
2023/10/07 09:04:53;;;;;;;3.50;1.90;;;20.00;55.10;;;;;;4975189;28;20430;-71
2023/10/07 09:07:22;;;;;;;3.53;2.57;;;20.00;55.50;;;;;;4975512;28;20489;-71
2023/10/07 09:09:49;;;;;;;2.63;2.03;;;20.20;55.50;;;;;;4974748;28;20831;-72
2023/10/07 09:12:18;;;;;;;3.17;2.17;;;20.20;54.60;;;;;;4975286;28;20492;-72
2023/10/07 09:14:52;;;;;;;3.00;2.23;;;20.00;56.30;;;;;;4974948;28;20446;-71
2023/10/07 09:17:21;;;;;;;3.30;1.93;;;19.90;56.70;;;;;;4975063;28;20431;-71
2023/10/07 09:19:49;;;;;;;2.97;2.00;;;19.80;56.10;;;;;;4974568;28;20825;-72
2023/10/07 09:22:18;;;;;;;4.27;2.03;;;19.70;56.30;;;;;;4974589;28;20473;-71
2023/10/07 09:24:46;;;;;;;4.00;2.13;;;19.60;57.10;;;;;;4974802;28;20450;-71
2023/10/07 09:27:14;;;;;;;2.90;2.13;;;19.50;56.70;;;;;;4974917;28;20449;-72
2023/10/07 09:29:45;;;;;;;3.00;2.10;;;19.40;57.70;;;;;;4974464;28;21018;-71
2023/10/07 09:32:20;;;;;;;2.73;1.70;;;19.20;56.80;;;;;;4974953;28;20558;-76
2023/10/07 09:34:47;;;;;;;2.60;1.90;;;19.20;58.50;;;;;;4974626;28;20521;-76
2023/10/07 09:37:18;;;;;;;2.87;2.00;;;19.10;58.00;;;;;;4974388;28;20497;-74
2023/10/07 09:39:53;;;;;;;3.50;2.37;;;18.90;58.90;;;;;;4974668;28;20434;-76
2023/10/07 09:42:26;;;;;;;3.97;2.63;;;19.10;60.60;;;;;;4974321;28;20992;-76
2023/10/07 09:45:00;;;;;;;2.97;1.97;;;19.40;59.20;;;;;;4974589;28;20434;-75
2023/10/07 09:47:28;;;;;;;2.63;1.70;;;19.30;58.10;;;;;;4974662;28;20430;-76
2023/10/07 09:49:59;;;;;;;3.47;2.30;;;19.50;57.80;;;;;;4974537;28;20482;-75
2023/10/07 09:52:32;;;;;;;3.57;2.30;;;19.40;58.50;;;;;;4974557;28;20490;-78
2023/10/07 09:55:21;;;;;;;2.47;1.67;;;19.50;58.80;;;;;;4974567;28;20983;-76
2023/10/07 09:58:06;;;;;;;3.17;1.90;;;19.60;59.20;;;;;;4974739;28;20438;-77
2023/10/07 10:00:40;;;;;;;4.03;2.00;;;19.70;57.50;;;;;;4974526;28;20460;-77
2023/10/07 10:03:34;;;;;;;4.83;2.60;;;19.80;57.60;;;;;;4974792;28;20437;-78
2023/10/07 10:06:25;;;;;;;2.97;2.03;;;19.80;58.50;;;;;;4976008;28;20446;-79
2023/10/07 10:08:58;;;;;;;2.80;1.80;;;20.10;57.80;;;;;;4976249;28;20437;-78
2023/10/07 10:11:45;;;;;;;3.00;2.20;;;20.20;57.20;;;;;;4974578;28;20508;-77
2023/10/07 10:14:19;;;;;;;2.70;1.50;;;20.40;57.90;;;;;;4974354;28;20474;-78
2023/10/07 10:16:48;;;;;;;2.83;1.73;;;20.50;56.00;;;;;;4974681;28;20847;-77
2023/10/07 10:19:25;;;;;;;3.90;1.93;;;20.60;55.80;;;;;;4974168;28;20887;-77
2023/10/07 10:21:52;;;;;;;2.70;1.80;;;20.40;55.90;;;;;;4974323;28;20469;-78
2023/10/07 10:24:23;;;;;;;2.70;2.13;;;20.50;56.20;;;;;;4974362;28;20482;-78
2023/10/07 10:27:02;;;;;;;5.07;1.73;;;20.60;55.90;;;;;;4974349;28;20434;-77
2023/10/07 10:29:33;;;;;;;3.60;1.80;;;20.70;55.20;;;;;;4974391;28;20856;-77
2023/10/07 10:32:07;;;;;;;2.73;1.70;;;20.70;55.80;;;;;;4974315;28;20478;-77
2023/10/07 10:34:35;;;;;;;4.23;2.27;;;20.80;56.00;;;;;;4974140;28;20509;-76
2023/10/07 10:37:05;;;;;;;4.00;2.23;;;20.90;56.60;;;;;;4974612;28;20516;-76
2023/10/07 10:39:32;;;;;;;2.90;2.13;;;20.70;57.20;;;;;;4975191;28;20446;-77
2023/10/07 10:42:05;;;;;;;4.60;2.70;;;20.90;56.90;;;;;;4974079;28;20816;-72
2023/10/07 10:44:37;;;;;;;2.70;2.10;;;21.10;55.80;;;;;;4974000;28;20426;-71
2023/10/07 10:47:03;;;;;;;2.90;2.00;;;21.10;55.80;;;;;;4974828;28;20841;-72
2023/10/07 10:49:31;;;;;;;2.93;1.87;;;20.90;55.50;;;;;;4977690;28;20469;-70
2023/10/07 10:52:02;;;;;;;3.33;2.50;;;20.90;55.20;;;;;;4977545;28;20479;-72
2023/10/07 10:54:31;;;;;;;3.07;2.03;;;20.60;53.30;;;;;;4977742;28;20927;-72
2023/10/07 10:56:59;;;;;;;3.40;1.90;;;20.40;53.10;;;;;;4977262;28;20964;-70
2023/10/07 10:59:42;;;;;;;2.40;1.73;;;20.40;55.50;;;;;;4977516;28;20445;-70
2023/10/07 11:02:11;;;;;;;2.70;1.97;;;20.40;53.40;;;;;;4977308;28;20489;-70
2023/10/07 11:04:38;;;;;;;2.50;1.80;;;20.40;53.40;;;;;;4977476;28;20876;-71
2023/10/07 11:07:07;;;;;;;2.73;2.07;;;20.30;54.20;;;;;;4977601;28;20453;-70
2023/10/07 11:09:38;;;;;;;3.00;1.80;;;20.40;55.60;;;;;;4977353;28;20452;-71
2023/10/07 11:12:09;;;;;;;2.43;1.77;;;20.50;53.30;;;;;;4977334;28;20474;-71
2023/10/07 11:14:40;;;;;;;2.90;2.13;;;20.50;53.90;;;;;;4976831;28;20904;-71
2023/10/07 11:17:09;;;;;;;2.33;1.70;;;20.50;54.00;;;;;;4977199;28;20496;-71
2023/10/07 11:19:43;;;;;;;3.60;2.43;;;20.40;53.80;;;;;;4977193;28;20481;-70
2023/10/07 11:22:13;;;;;;;5.07;1.70;;;20.40;53.70;;;;;;4976904;28;20892;-71
2023/10/07 11:24:40;;;;;;;4.00;2.03;;;20.40;53.70;;;;;;4977064;28;20458;-71
2023/10/07 11:27:08;;;;;;;2.13;1.60;;;20.30;52.90;;;;;;4977047;28;20822;-70
2023/10/07 11:29:36;;;;;;;2.87;1.73;;;20.40;55.10;;;;;;4977236;28;20450;-71
2023/10/07 11:32:06;;;;;;;3.03;1.77;;;20.40;53.80;;;;;;4976601;28;20909;-70
2023/10/07 11:34:38;;;;;;;3.80;1.87;;;20.40;53.10;;;;;;4976840;28;20577;-70
2023/10/07 11:37:13;;;;;;;3.60;2.10;;;20.60;54.00;;;;;;4976920;28;20450;-70
2023/10/07 11:39:45;;;;;;;2.83;1.77;;;20.80;54.00;;;;;;4976799;28;20426;-70
2023/10/07 11:42:14;;;;;;;2.93;2.00;;;20.90;53.50;;;;;;4976740;28;20481;-71
2023/10/07 11:44:42;;;;;;;2.87;1.93;;;20.90;53.50;;;;;;4977726;28;20446;-71
2023/10/07 11:47:11;;;;;;;3.60;1.90;;;20.90;53.40;;;;;;4976457;28;21006;-70
2023/10/07 11:49:38;;;;;;;2.20;1.40;;;20.60;53.60;;;;;;4976587;28;20963;-70
2023/10/07 11:52:05;;;;;;;3.00;2.30;;;20.60;53.30;;;;;;4976533;28;20845;-70
2023/10/07 11:54:35;;;;;;;2.40;1.50;;;20.60;53.50;;;;;;4976545;28;20485;-71
2023/10/07 11:57:04;;;;;;;3.10;2.00;;;20.70;54.20;;;;;;4977591;28;20837;-71
2023/10/07 11:59:31;;;;;;;3.50;1.93;;;20.60;54.80;;;;;;4975350;28;20548;-71
2023/10/07 12:01:58;;;;;;;2.37;1.83;;;20.70;54.30;;;;;;4976051;28;20856;-71
2023/10/07 12:04:26;;;;;;;2.70;1.70;;;20.80;54.00;;;;;;4976501;28;20450;-71
2023/10/07 12:06:53;;;;;;;2.70;1.97;;;21.00;54.20;;;;;;4976259;28;20539;-72
2023/10/07 12:09:21;;;;;;;2.73;1.50;;;21.10;53.60;;;;;;4976551;28;20453;-71
2023/10/07 12:11:53;;;;;;;3.43;1.90;;;21.10;54.10;;;;;;4976131;28;20477;-71
2023/10/07 12:14:20;;;;;;;3.17;2.20;;;21.20;53.20;;;;;;4976439;28;20550;-72
2023/10/07 12:16:47;;;;;;;4.07;2.00;;;21.40;54.30;;;;;;4976776;28;20456;-71
2023/10/07 12:19:17;;;;;;;3.50;2.27;;;21.50;53.90;;;;;;4976186;28;20825;-71
2023/10/07 12:21:47;;;;;;;3.40;2.27;;;21.50;54.40;;;;;;4975988;28;20478;-71
2023/10/07 12:24:16;;;;;;;2.80;2.20;;;21.50;54.40;;;;;;4976106;28;20430;-72
2023/10/07 12:26:45;;;;;;;3.37;1.80;;;21.60;55.10;;;;;;4975780;28;20971;-71
2023/10/07 12:29:12;;;;;;;2.70;1.83;;;21.50;53.30;;;;;;4976149;28;20458;-71
2023/10/07 12:31:39;;;;;;;3.30;1.97;;;21.40;54.00;;;;;;4976006;28;20528;-71
2023/10/07 12:34:09;;;;;;;3.20;1.73;;;21.50;53.70;;;;;;4975483;28;20835;-72
2023/10/07 12:36:38;;;;;;;3.43;1.70;;;21.50;53.40;;;;;;4976270;28;20509;-72
2023/10/07 12:39:10;;;;;;;3.33;2.17;;;21.50;53.90;;;;;;4975742;28;20446;-72
2023/10/07 12:41:37;;;;;;;2.93;2.07;;;21.50;54.30;;;;;;4975762;28;20561;-71
2023/10/07 12:44:08;;;;;;;2.53;1.97;;;21.50;54.00;;;;;;4975819;28;20446;-71
2023/10/07 12:46:35;;;;;;;2.60;1.80;;;21.50;54.40;;;;;;4975493;28;20434;-71
2023/10/07 12:49:03;;;;;;;3.20;1.93;;;21.60;54.10;;;;;;4975625;28;20446;-71
2023/10/07 12:51:32;;;;;;;2.50;1.87;;;21.90;53.20;;;;;;4975179;28;21007;-71
2023/10/07 12:54:00;;;;;;;2.97;2.13;;;21.90;53.00;;;;;;4975465;28;20524;-71
2023/10/07 12:56:31;;;;;;;3.10;2.00;;;22.10;52.50;;;;;;4975522;28;20450;-71
2023/10/07 12:58:57;;;;;;;2.70;1.80;;;21.90;53.30;;;;;;4975561;28;20852;-72
2023/10/07 13:01:24;;;;;;;2.93;1.80;;;21.70;53.50;;;;;;4975131;28;20495;-70
2023/10/07 13:03:52;;;;;;;3.90;2.10;;;21.60;54.20;;;;;;4974952;28;20934;-71
2023/10/07 13:06:19;;;;;;;3.20;1.60;;;21.70;53.30;;;;;;4975344;28;20450;-71
2023/10/07 13:08:46;;;;;;;2.50;1.70;;;21.50;55.30;;;;;;4975369;28;20513;-72
2023/10/07 13:11:13;;;;;;;2.60;1.40;;;21.50;54.80;;;;;;4975060;28;20473;-73
2023/10/07 13:13:42;;;;;;;3.30;2.33;;;21.60;54.60;;;;;;4975204;28;20486;-71
2023/10/07 13:16:10;;;;;;;3.20;2.20;;;21.60;54.30;;;;;;4975357;28;20445;-73
2023/10/07 13:18:38;;;;;;;2.37;1.80;;;21.60;54.90;;;;;;4975225;28;20931;-72
2023/10/07 13:21:07;;;;;;;2.50;1.80;;;21.60;53.80;;;;;;4975233;28;20476;-72
2023/10/07 13:23:38;;;;;;;2.37;1.60;;;21.80;53.10;;;;;;4975394;28;20551;-73
2023/10/07 13:26:08;;;;;;;3.17;2.10;;;22.00;54.00;;;;;;4975258;28;20852;-72
2023/10/07 13:28:37;;;;;;;2.80;2.27;;;22.70;53.70;;;;;;4975538;28;20545;-76
2023/10/07 13:31:06;;;;;;;3.70;2.00;;;23.20;52.30;;;;;;4975189;28;20465;-76
2023/10/07 13:33:33;;;;;;;3.00;2.00;;;23.40;49.60;;;;;;4974650;28;20442;-75
2023/10/07 13:36:00;;;;;;;2.57;1.93;;;23.80;50.50;;;;;;4974709;28;20453;-74
2023/10/07 13:38:26;;;;;;;3.17;1.90;;;24.00;50.80;;;;;;4975075;28;20454;-75
2023/10/07 13:40:53;;;;;;;2.67;1.77;;;24.30;49.20;;;;;;4974920;28;20466;-75
2023/10/07 13:43:20;;;;;;;3.27;2.13;;;24.20;48.30;;;;;;4974589;28;20449;-75
2023/10/07 13:45:46;;;;;;;2.50;1.40;;;24.60;48.80;;;;;;4974742;28;20477;-72
2023/10/07 13:48:14;;;;;;;3.37;1.90;;;25.40;47.50;;;;;;4974598;28;20469;-72
2023/10/07 13:50:41;;;;;;;2.60;1.70;;;26.50;44.80;;;;;;4974513;28;20450;-71
2023/10/07 13:53:15;;;;;;;3.77;2.13;;;26.40;44.30;;;;;;4974744;28;20442;-73
2023/10/07 13:55:57;;;;;;;3.00;2.00;;;25.80;45.70;;;;;;4974199;28;20898;-70
2023/10/07 13:58:23;;;;;;;2.70;1.80;;;25.50;46.50;;;;;;4974527;28;20441;-72
2023/10/07 14:00:51;;;;;;;2.60;1.70;;;25.10;47.40;;;;;;4975542;28;20482;-76
2023/10/07 14:03:22;;;;;;;2.70;1.70;;;24.80;47.50;;;;;;4975902;28;20191;-76
2023/10/07 14:05:50;;;;;;;2.17;1.60;;;24.60;48.60;;;;;;4976002;28;20533;-76
2023/10/07 14:08:19;;;;;;;3.33;2.07;;;24.70;47.90;;;;;;4975257;28;20472;-76
2023/10/07 14:10:47;;;;;;;3.37;2.00;;;25.00;47.70;;;;;;4975198;28;20477;-75
2023/10/07 14:13:19;;;;;;;3.07;2.10;;;25.40;47.90;;;;;;4975272;28;20436;-75
2023/10/07 14:15:49;;;;;;;3.37;3.03;;;25.50;47.40;;;;;;4975331;28;20486;-76
2023/10/07 14:18:19;;;;;;;4.00;3.10;;;25.30;47.30;;;;;;4975307;28;20462;-76
2023/10/07 14:20:52;;;;;;;3.30;2.87;;;25.30;47.00;;;;;;4975030;28;20470;-76
2023/10/07 14:23:19;;;;;;;2.97;2.27;;;25.20;48.90;;;;;;4978138;28;20454;-76
2023/10/07 14:25:49;;;;;;;3.20;1.90;;;25.10;47.90;;;;;;4979199;28;20497;-76
2023/10/07 14:28:16;;;;;;;4.87;2.10;;;25.40;47.40;;;;;;4979048;28;20935;-76
2023/10/07 14:30:44;;;;;;;3.73;1.90;;;25.80;47.40;;;;;;4979151;28;20462;-76
2023/10/07 14:33:12;;;;;;;2.80;1.77;;;26.20;47.30;;;;;;4979365;28;20453;-76
2023/10/07 14:35:39;;;;;;;2.90;1.77;;;26.20;46.10;;;;;;4979429;28;20521;-76
2023/10/07 14:38:09;;;;;;;2.90;2.37;;;26.00;44.90;;;;;;4978688;28;20457;-76
2023/10/07 14:40:37;;;;;;;3.47;2.13;;;25.80;46.00;;;;;;4978948;28;20457;-75
2023/10/07 14:43:05;;;;;;;2.80;1.80;;;25.70;46.70;;;;;;4979085;28;20450;-75
2023/10/07 14:45:33;;;;;;;2.53;2.00;;;25.50;46.60;;;;;;4978804;28;20824;-76
2023/10/07 14:48:00;;;;;;;2.67;2.00;;;25.40;46.70;;;;;;4978809;28;20450;-76
2023/10/07 14:50:27;;;;;;;2.67;1.90;;;25.00;45.50;;;;;;4978432;28;20477;-76
2023/10/07 14:52:54;;;;;;;2.90;1.70;;;24.50;46.30;;;;;;4985886;28;20445;-81
2023/10/07 14:55:23;;;;;;;3.77;2.13;;;25.10;46.80;;;;;;4981169;28;20489;-83
2023/10/07 14:57:50;;;;;;;2.03;1.47;;;26.10;45.20;;;;;;4981227;28;20449;-83
2023/10/07 15:00:17;;;;;;;2.57;1.63;;;27.10;44.70;;;;;;4982629;28;20453;-81
2023/10/07 15:02:46;;;;;;;2.43;1.70;;;27.80;40.80;;;;;;4979758;28;20998;-82
2023/10/07 15:05:13;;;;;;;2.60;1.80;;;28.60;40.00;;;;;;4981221;28;20827;-83
2023/10/07 15:07:40;;;;;;;2.77;2.00;;;29.30;38.40;;;;;;4981790;28;20920;-82
2023/10/07 15:10:08;;;;;;;2.90;1.80;;;28.70;40.00;;;;;;4981895;28;20549;-83
2023/10/07 15:12:36;;;;;;;2.20;1.57;;;28.20;39.80;;;;;;4981417;28;20497;-82
2023/10/07 15:15:06;;;;;;;2.60;1.97;;;27.60;41.80;;;;;;4981616;28;20486;-83
2023/10/07 15:17:33;;;;;;;2.47;1.80;;;27.10;43.00;;;;;;4981329;28;20481;-82
2023/10/07 15:20:00;;;;;;;2.50;1.80;;;26.60;43.50;;;;;;4981831;28;20473;-82
2023/10/07 15:22:28;;;;;;;2.63;1.87;;;26.30;44.90;;;;;;4981299;28;20512;-83
2023/10/07 15:24:55;;;;;;;3.10;2.00;;;26.00;44.30;;;;;;4980549;28;20497;-82
2023/10/07 15:27:23;;;;;;;2.60;1.70;;;25.50;44.30;;;;;;4981454;28;20461;-80
2023/10/07 15:29:51;;;;;;;2.17;1.43;;;25.30;45.60;;;;;;4980921;28;20501;-80
2023/10/07 15:32:18;;;;;;;2.20;1.70;;;25.10;46.40;;;;;;4980669;28;20470;-80
2023/10/07 15:34:44;;;;;;;3.37;1.93;;;24.90;46.60;;;;;;4981165;28;20533;-81
2023/10/07 15:37:13;;;;;;;2.67;1.97;;;24.70;47.20;;;;;;4980547;28;20446;-80
2023/10/07 15:39:39;;;;;;;2.70;1.73;;;24.50;49.00;;;;;;4978977;28;20549;-80
2023/10/07 15:42:08;;;;;;;3.20;2.23;;;24.30;50.70;;;;;;4979545;28;20473;-82
2023/10/07 15:44:35;;;;;;;4.30;2.63;;;24.10;50.80;;;;;;4979816;28;20450;-80
2023/10/07 15:47:04;;;;;;;4.60;3.00;;;24.00;52.30;;;;;;4979439;28;20445;-80
2023/10/07 15:49:31;;;;;;;5.20;4.70;;;23.80;53.30;;;;;;4978143;28;20944;-75
2023/10/07 15:51:58;;;;;;;7.20;6.00;;;23.70;54.50;;;;;;4976757;28;20528;-75
2023/10/07 15:54:25;;;;;;;10.83;9.23;;;23.50;55.50;;;;;;4976702;28;20482;-76
2023/10/07 15:56:52;;;;;;;8.50;7.60;;;23.30;56.10;;;;;;4976751;28;20454;-76
2023/10/07 15:59:18;;;;;;;8.30;7.50;;;23.20;57.40;;;;;;4976572;28;20465;-77
2023/10/07 16:01:46;;;;;;;5.40;4.87;;;23.00;57.80;;;;;;4976610;28;20494;-75
2023/10/07 16:04:15;;;;;;;4.10;3.57;;;22.90;57.50;;;;;;4977968;28;20471;-74
2023/10/07 16:06:43;;;;;;;2.93;2.47;;;22.80;57.90;;;;;;4976931;28;20446;-75
2023/10/07 16:09:13;;;;;;;2.67;2.03;;;22.70;57.10;;;;;;4976276;28;20998;-77
2023/10/07 16:11:40;;;;;;;2.57;2.17;;;22.50;57.50;;;;;;4977198;28;20806;-78
2023/10/07 16:14:08;;;;;;;2.87;2.33;;;22.40;56.50;;;;;;4976250;28;20791;-76
2023/10/07 16:16:34;;;;;;;3.97;2.40;;;22.30;56.90;;;;;;4976781;28;20573;-76
2023/10/07 16:19:01;;;;;;;3.20;2.00;;;22.20;58.50;;;;;;4975901;28;20454;-76
2023/10/07 16:21:30;;;;;;;3.10;2.20;;;22.10;58.50;;;;;;4975967;28;20462;-77
2023/10/07 16:23:56;;;;;;;2.63;1.90;;;22.00;59.10;;;;;;4976022;28;20947;-74
2023/10/07 16:26:24;;;;;;;2.70;2.10;;;21.80;57.50;;;;;;4976480;28;20465;-74
2023/10/07 16:28:54;;;;;;;2.60;1.67;;;21.70;57.00;;;;;;4976621;28;20485;-74
2023/10/07 16:31:22;;;;;;;3.23;2.20;;;21.60;58.00;;;;;;4977216;28;20466;-76
2023/10/07 16:33:51;;;;;;;2.50;1.80;;;21.50;55.80;;;;;;4976421;28;20465;-75
2023/10/07 16:36:18;;;;;;;2.40;1.60;;;21.40;57.20;;;;;;4976241;28;20482;-75
2023/10/07 16:38:46;;;;;;;2.90;2.23;;;21.20;56.80;;;;;;4976377;28;20450;-76
2023/10/07 16:41:17;;;;;;;2.53;1.87;;;21.20;57.60;;;;;;4976492;28;20470;-74
2023/10/07 16:43:45;;;;;;;2.83;1.80;;;21.10;57.50;;;;;;4976504;28;20465;-75
2023/10/07 16:46:14;;;;;;;2.97;1.60;;;21.00;58.00;;;;;;4975362;28;20448;-74
2023/10/07 16:48:41;;;;;;;3.50;1.77;;;21.00;58.70;;;;;;4976096;28;20508;-75
2023/10/07 16:51:10;;;;;;;2.50;1.90;;;20.90;58.50;;;;;;4975654;28;20840;-75
2023/10/07 16:53:38;;;;;;;2.17;1.60;;;20.80;58.40;;;;;;4975618;28;20449;-73
2023/10/07 16:56:08;;;;;;;3.73;1.77;;;20.70;59.40;;;;;;4975592;28;20486;-75
2023/10/07 16:58:34;;;;;;;4.37;1.57;;;20.60;59.50;;;;;;4975743;28;20450;-75
2023/10/07 17:01:01;;;;;;;2.77;1.77;;;20.50;58.90;;;;;;4974832;28;20481;-74
2023/10/07 17:03:29;;;;;;;2.87;1.50;;;20.40;59.70;;;;;;4975320;28;20449;-74